sensor_id;sensor_type;location;lat;lon;timestamp;P1;durP1;ratioP1;P2;durP2;ratioP2
1410;SDS011;700;51.906;8.404;2023-04-15T00:03:32;7.03;;;5.63;;
1410;SDS011;700;51.906;8.404;2023-04-15T00:08:33;7.33;;;5.70;;
1410;SDS011;700;51.906;8.404;2023-04-15T00:13:33;7.43;;;6.73;;
1410;SDS011;700;51.906;8.404;2023-04-15T00:18:34;8.57;;;6.27;;
1410;SDS011;700;51.906;8.404;2023-04-15T00:23:35;8.53;;;6.57;;
1410;SDS011;700;51.906;8.404;2023-04-15T00:28:38;9.63;;;6.87;;
1410;SDS011;700;51.906;8.404;2023-04-15T00:33:41;6.50;;;5.90;;
1410;SDS011;700;51.906;8.404;2023-04-15T00:38:41;7.60;;;6.90;;
1410;SDS011;700;51.906;8.404;2023-04-15T00:43:42;8.97;;;6.57;;
1410;SDS011;700;51.906;8.404;2023-04-15T00:48:45;7.67;;;6.90;;
1410;SDS011;700;51.906;8.404;2023-04-15T00:53:49;7.63;;;6.67;;
1410;SDS011;700;51.906;8.404;2023-04-15T00:58:50;9.23;;;6.37;;
1410;SDS011;700;51.906;8.404;2023-04-15T01:03:51;9.80;;;7.33;;
1410;SDS011;700;51.906;8.404;2023-04-15T01:08:53;7.90;;;6.33;;
1410;SDS011;700;51.906;8.404;2023-04-15T01:13:58;11.57;;;7.90;;
1410;SDS011;700;51.906;8.404;2023-04-15T01:19:04;12.53;;;11.33;;
1410;SDS011;700;51.906;8.404;2023-04-15T01:24:09;13.60;;;12.20;;
1410;SDS011;700;51.906;8.404;2023-04-15T01:29:10;13.17;;;11.40;;
1410;SDS011;700;51.906;8.404;2023-04-15T01:34:11;13.50;;;11.43;;
1410;SDS011;700;51.906;8.404;2023-04-15T01:39:11;11.43;;;10.23;;
1410;SDS011;700;51.906;8.404;2023-04-15T01:44:17;11.70;;;9.53;;
1410;SDS011;700;51.906;8.404;2023-04-15T01:49:20;9.53;;;8.40;;
1410;SDS011;700;51.906;8.404;2023-04-15T01:54:21;10.57;;;9.30;;
1410;SDS011;700;51.906;8.404;2023-04-15T01:59:22;11.60;;;10.40;;
1410;SDS011;700;51.906;8.404;2023-04-15T02:04:25;12.97;;;11.57;;
1410;SDS011;700;51.906;8.404;2023-04-15T02:09:30;14.17;;;12.77;;
1410;SDS011;700;51.906;8.404;2023-04-15T02:14:31;14.40;;;12.77;;
1410;SDS011;700;51.906;8.404;2023-04-15T02:19:34;11.93;;;10.60;;
1410;SDS011;700;51.906;8.404;2023-04-15T02:24:35;13.60;;;11.20;;
1410;SDS011;700;51.906;8.404;2023-04-15T02:29:43;14.67;;;10.97;;
1410;SDS011;700;51.906;8.404;2023-04-15T02:34:44;13.33;;;11.93;;
1410;SDS011;700;51.906;8.404;2023-04-15T02:39:47;15.53;;;13.20;;
1410;SDS011;700;51.906;8.404;2023-04-15T02:44:48;13.73;;;12.33;;
1410;SDS011;700;51.906;8.404;2023-04-15T02:49:49;15.73;;;14.13;;
1410;SDS011;700;51.906;8.404;2023-04-15T02:54:52;15.10;;;13.50;;
1410;SDS011;700;51.906;8.404;2023-04-15T02:59:56;14.63;;;13.07;;
1410;SDS011;700;51.906;8.404;2023-04-15T03:04:57;13.07;;;11.40;;
1410;SDS011;700;51.906;8.404;2023-04-15T03:09:57;13.47;;;12.10;;
1410;SDS011;700;51.906;8.404;2023-04-15T03:15:00;13.67;;;11.77;;
1410;SDS011;700;51.906;8.404;2023-04-15T03:20:01;13.10;;;11.77;;
1410;SDS011;700;51.906;8.404;2023-04-15T03:25:06;13.20;;;11.90;;
1410;SDS011;700;51.906;8.404;2023-04-15T03:30:07;13.77;;;12.23;;
1410;SDS011;700;51.906;8.404;2023-04-15T03:35:10;13.30;;;11.23;;
1410;SDS011;700;51.906;8.404;2023-04-15T03:40:11;14.67;;;11.80;;
1410;SDS011;700;51.906;8.404;2023-04-15T03:45:12;14.63;;;12.90;;
1410;SDS011;700;51.906;8.404;2023-04-15T03:50:12;14.10;;;12.43;;
1410;SDS011;700;51.906;8.404;2023-04-15T03:55:13;13.53;;;11.90;;
1410;SDS011;700;51.906;8.404;2023-04-15T04:00:14;13.03;;;11.63;;
1410;SDS011;700;51.906;8.404;2023-04-15T04:05:15;13.30;;;10.90;;
1410;SDS011;700;51.906;8.404;2023-04-15T04:10:16;13.80;;;12.33;;
1410;SDS011;700;51.906;8.404;2023-04-15T04:15:17;12.07;;;10.70;;
1410;SDS011;700;51.906;8.404;2023-04-15T04:20:18;16.03;;;12.00;;
1410;SDS011;700;51.906;8.404;2023-04-15T04:25:21;13.87;;;11.50;;
1410;SDS011;700;51.906;8.404;2023-04-15T04:30:22;15.87;;;11.90;;
1410;SDS011;700;51.906;8.404;2023-04-15T04:35:22;16.73;;;12.63;;
1410;SDS011;700;51.906;8.404;2023-04-15T04:40:25;19.63;;;16.07;;
1410;SDS011;700;51.906;8.404;2023-04-15T04:45:28;15.50;;;13.17;;
1410;SDS011;700;51.906;8.404;2023-04-15T04:50:29;14.80;;;11.90;;
1410;SDS011;700;51.906;8.404;2023-04-15T04:55:30;13.70;;;11.90;;
1410;SDS011;700;51.906;8.404;2023-04-15T05:00:35;16.70;;;11.60;;
1410;SDS011;700;51.906;8.404;2023-04-15T05:05:39;12.53;;;11.17;;
1410;SDS011;700;51.906;8.404;2023-04-15T05:10:42;15.00;;;11.70;;
1410;SDS011;700;51.906;8.404;2023-04-15T05:15:43;13.90;;;11.60;;
1410;SDS011;700;51.906;8.404;2023-04-15T05:20:44;12.47;;;11.00;;
1410;SDS011;700;51.906;8.404;2023-04-15T05:25:45;12.30;;;11.00;;
1410;SDS011;700;51.906;8.404;2023-04-15T05:30:48;12.87;;;11.57;;
1410;SDS011;700;51.906;8.404;2023-04-15T05:35:51;16.03;;;12.37;;
1410;SDS011;700;51.906;8.404;2023-04-15T05:40:54;15.47;;;11.73;;
1410;SDS011;700;51.906;8.404;2023-04-15T05:45:55;15.53;;;12.03;;
1410;SDS011;700;51.906;8.404;2023-04-15T05:50:55;22.03;;;18.23;;
1410;SDS011;700;51.906;8.404;2023-04-15T05:55:56;15.47;;;11.77;;
1410;SDS011;700;51.906;8.404;2023-04-15T06:00:57;16.40;;;11.10;;
1410;SDS011;700;51.906;8.404;2023-04-15T06:06:00;15.30;;;13.20;;
1410;SDS011;700;51.906;8.404;2023-04-15T06:11:01;15.50;;;13.27;;
1410;SDS011;700;51.906;8.404;2023-04-15T06:16:02;19.93;;;14.43;;
1410;SDS011;700;51.906;8.404;2023-04-15T06:21:03;14.77;;;12.50;;
1410;SDS011;700;51.906;8.404;2023-04-15T06:26:04;14.07;;;11.70;;
1410;SDS011;700;51.906;8.404;2023-04-15T06:31:04;14.37;;;12.00;;
1410;SDS011;700;51.906;8.404;2023-04-15T06:36:07;15.73;;;11.80;;
1410;SDS011;700;51.906;8.404;2023-04-15T06:41:08;14.87;;;13.27;;
1410;SDS011;700;51.906;8.404;2023-04-15T06:46:08;16.80;;;12.63;;
1410;SDS011;700;51.906;8.404;2023-04-15T06:51:09;13.83;;;12.43;;
1410;SDS011;700;51.906;8.404;2023-04-15T06:56:10;19.97;;;14.43;;
1410;SDS011;700;51.906;8.404;2023-04-15T07:01:16;21.67;;;16.70;;
1410;SDS011;700;51.906;8.404;2023-04-15T07:06:17;30.83;;;20.63;;
1410;SDS011;700;51.906;8.404;2023-04-15T07:11:21;20.37;;;16.50;;
1410;SDS011;700;51.906;8.404;2023-04-15T07:16:21;26.70;;;19.87;;
1410;SDS011;700;51.906;8.404;2023-04-15T07:21:24;17.73;;;14.67;;
1410;SDS011;700;51.906;8.404;2023-04-15T07:26:28;15.73;;;12.87;;
1410;SDS011;700;51.906;8.404;2023-04-15T07:31:31;26.17;;;20.60;;
1410;SDS011;700;51.906;8.404;2023-04-15T07:36:34;15.33;;;13.43;;
1410;SDS011;700;51.906;8.404;2023-04-15T07:41:35;30.70;;;22.60;;
1410;SDS011;700;51.906;8.404;2023-04-15T07:46:36;15.63;;;13.47;;
1410;SDS011;700;51.906;8.404;2023-04-15T07:51:37;14.70;;;13.17;;
1410;SDS011;700;51.906;8.404;2023-04-15T07:56:40;20.47;;;16.80;;
1410;SDS011;700;51.906;8.404;2023-04-15T08:01:43;51.43;;;31.07;;
1410;SDS011;700;51.906;8.404;2023-04-15T08:06:49;19.70;;;15.77;;
1410;SDS011;700;51.906;8.404;2023-04-15T08:11:55;16.10;;;14.30;;
1410;SDS011;700;51.906;8.404;2023-04-15T08:16:56;15.27;;;13.70;;
1410;SDS011;700;51.906;8.404;2023-04-15T08:21:56;17.63;;;15.67;;
1410;SDS011;700;51.906;8.404;2023-04-15T08:26:57;25.50;;;20.47;;
1410;SDS011;700;51.906;8.404;2023-04-15T08:31:59;16.10;;;14.00;;
1410;SDS011;700;51.906;8.404;2023-04-15T08:37:03;20.67;;;14.97;;
1410;SDS011;700;51.906;8.404;2023-04-15T08:42:04;20.53;;;15.23;;
1410;SDS011;700;51.906;8.404;2023-04-15T08:47:12;36.27;;;24.47;;
1410;SDS011;700;51.906;8.404;2023-04-15T08:52:13;26.20;;;18.50;;
1410;SDS011;700;51.906;8.404;2023-04-15T08:57:15;19.40;;;15.10;;
1410;SDS011;700;51.906;8.404;2023-04-15T09:02:18;18.63;;;14.03;;
1410;SDS011;700;51.906;8.404;2023-04-15T09:07:20;30.30;;;19.70;;
1410;SDS011;700;51.906;8.404;2023-04-15T09:12:20;16.30;;;13.07;;
1410;SDS011;700;51.906;8.404;2023-04-15T09:17:23;28.57;;;19.83;;
1410;SDS011;700;51.906;8.404;2023-04-15T09:22:30;12.90;;;11.17;;
1410;SDS011;700;51.906;8.404;2023-04-15T09:27:36;10.47;;;9.20;;
1410;SDS011;700;51.906;8.404;2023-04-15T09:32:50;11.17;;;9.90;;
1410;SDS011;700;51.906;8.404;2023-04-15T09:43:07;12.57;;;9.03;;
1410;SDS011;700;51.906;8.404;2023-04-15T09:53:19;9.97;;;8.30;;
1410;SDS011;700;51.906;8.404;2023-04-15T09:58:23;8.03;;;7.23;;
1410;SDS011;700;51.906;8.404;2023-04-15T10:03:28;26.07;;;17.20;;
1410;SDS011;700;51.906;8.404;2023-04-15T10:08:31;19.10;;;13.03;;
1410;SDS011;700;51.906;8.404;2023-04-15T10:13:36;13.10;;;9.13;;
1410;SDS011;700;51.906;8.404;2023-04-15T10:18:39;22.47;;;16.17;;
1410;SDS011;700;51.906;8.404;2023-04-15T10:23:42;50.90;;;30.07;;
1410;SDS011;700;51.906;8.404;2023-04-15T10:28:47;25.67;;;16.27;;
1410;SDS011;700;51.906;8.404;2023-04-15T10:33:48;10.37;;;6.73;;
1410;SDS011;700;51.906;8.404;2023-04-15T10:38:53;9.97;;;7.70;;
1410;SDS011;700;51.906;8.404;2023-04-15T10:44:03;9.27;;;6.87;;
1410;SDS011;700;51.906;8.404;2023-04-15T10:59:28;7.23;;;5.97;;
1410;SDS011;700;51.906;8.404;2023-04-15T11:09:58;9.23;;;6.73;;
1410;SDS011;700;51.906;8.404;2023-04-15T11:20:27;21.20;;;12.23;;
1410;SDS011;700;51.906;8.404;2023-04-15T11:25:30;5.60;;;4.93;;
1410;SDS011;700;51.906;8.404;2023-04-15T11:30:33;5.10;;;4.40;;
1410;SDS011;700;51.906;8.404;2023-04-15T11:35:39;4.87;;;4.37;;
1410;SDS011;700;51.906;8.404;2023-04-15T11:40:42;5.10;;;4.60;;
1410;SDS011;700;51.906;8.404;2023-04-15T11:50:55;5.00;;;4.50;;
1410;SDS011;700;51.906;8.404;2023-04-15T11:56:00;18.70;;;11.67;;
1410;SDS011;700;51.906;8.404;2023-04-15T12:01:00;13.00;;;9.10;;
1410;SDS011;700;51.906;8.404;2023-04-15T12:11:11;12.57;;;9.30;;
1410;SDS011;700;51.906;8.404;2023-04-15T12:16:12;5.60;;;5.00;;
1410;SDS011;700;51.906;8.404;2023-04-15T12:21:20;5.73;;;4.90;;
1410;SDS011;700;51.906;8.404;2023-04-15T12:26:26;6.40;;;4.17;;
1410;SDS011;700;51.906;8.404;2023-04-15T12:31:27;4.33;;;3.93;;
1410;SDS011;700;51.906;8.404;2023-04-15T12:36:28;4.40;;;4.00;;
1410;SDS011;700;51.906;8.404;2023-04-15T12:41:37;5.60;;;4.37;;
1410;SDS011;700;51.906;8.404;2023-04-15T12:46:38;4.63;;;3.63;;
1410;SDS011;700;51.906;8.404;2023-04-15T12:51:39;5.60;;;4.80;;
1410;SDS011;700;51.906;8.404;2023-04-15T12:56:45;3.90;;;3.50;;
1410;SDS011;700;51.906;8.404;2023-04-15T13:01:48;4.57;;;3.90;;
1410;SDS011;700;51.906;8.404;2023-04-15T13:06:50;7.37;;;4.93;;
1410;SDS011;700;51.906;8.404;2023-04-15T13:11:51;4.13;;;3.47;;
1410;SDS011;700;51.906;8.404;2023-04-15T13:16:55;3.70;;;3.20;;
1410;SDS011;700;51.906;8.404;2023-04-15T13:21:55;3.07;;;2.60;;
1410;SDS011;700;51.906;8.404;2023-04-15T13:26:56;3.20;;;2.90;;
1410;SDS011;700;51.906;8.404;2023-04-15T13:31:58;3.20;;;2.70;;
1410;SDS011;700;51.906;8.404;2023-04-15T13:37:06;3.60;;;3.00;;
1410;SDS011;700;51.906;8.404;2023-04-15T13:42:08;3.47;;;3.17;;
1410;SDS011;700;51.906;8.404;2023-04-15T13:47:08;2.83;;;2.43;;
1410;SDS011;700;51.906;8.404;2023-04-15T13:52:09;3.67;;;3.27;;
1410;SDS011;700;51.906;8.404;2023-04-15T13:57:11;5.00;;;3.47;;
1410;SDS011;700;51.906;8.404;2023-04-15T14:02:13;20.87;;;10.67;;
1410;SDS011;700;51.906;8.404;2023-04-15T14:07:16;6.23;;;4.80;;
1410;SDS011;700;51.906;8.404;2023-04-15T14:12:17;19.60;;;11.90;;
1410;SDS011;700;51.906;8.404;2023-04-15T14:17:17;44.47;;;24.10;;
1410;SDS011;700;51.906;8.404;2023-04-15T14:22:18;9.83;;;6.47;;
1410;SDS011;700;51.906;8.404;2023-04-15T14:27:19;37.10;;;19.60;;
1410;SDS011;700;51.906;8.404;2023-04-15T14:32:19;16.90;;;10.73;;
1410;SDS011;700;51.906;8.404;2023-04-15T14:37:26;18.07;;;11.47;;
1410;SDS011;700;51.906;8.404;2023-04-15T14:42:27;29.30;;;17.23;;
1410;SDS011;700;51.906;8.404;2023-04-15T14:47:29;10.60;;;7.53;;
1410;SDS011;700;51.906;8.404;2023-04-15T14:52:32;11.30;;;8.50;;
1410;SDS011;700;51.906;8.404;2023-04-15T14:57:38;13.27;;;10.27;;
1410;SDS011;700;51.906;8.404;2023-04-15T15:02:43;10.80;;;9.33;;
1410;SDS011;700;51.906;8.404;2023-04-15T15:07:48;31.17;;;19.07;;
1410;SDS011;700;51.906;8.404;2023-04-15T15:12:49;10.23;;;7.17;;
1410;SDS011;700;51.906;8.404;2023-04-15T15:17:49;7.73;;;6.93;;
1410;SDS011;700;51.906;8.404;2023-04-15T15:22:50;7.57;;;6.77;;
1410;SDS011;700;51.906;8.404;2023-04-15T15:27:51;10.20;;;6.77;;
1410;SDS011;700;51.906;8.404;2023-04-15T15:32:56;11.10;;;8.90;;
1410;SDS011;700;51.906;8.404;2023-04-15T15:37:58;7.97;;;7.17;;
1410;SDS011;700;51.906;8.404;2023-04-15T15:42:59;11.77;;;8.33;;
1410;SDS011;700;51.906;8.404;2023-04-15T15:48:02;9.03;;;7.13;;
1410;SDS011;700;51.906;8.404;2023-04-15T15:53:06;6.93;;;6.10;;
1410;SDS011;700;51.906;8.404;2023-04-15T15:58:07;8.17;;;7.37;;
1410;SDS011;700;51.906;8.404;2023-04-15T16:03:09;8.20;;;7.40;;
1410;SDS011;700;51.906;8.404;2023-04-15T16:08:10;9.83;;;8.20;;
1410;SDS011;700;51.906;8.404;2023-04-15T16:13:11;8.07;;;7.27;;
1410;SDS011;700;51.906;8.404;2023-04-15T16:18:14;8.00;;;6.60;;
1410;SDS011;700;51.906;8.404;2023-04-15T16:23:15;8.47;;;7.37;;
1410;SDS011;700;51.906;8.404;2023-04-15T16:28:18;8.60;;;6.90;;
1410;SDS011;700;51.906;8.404;2023-04-15T16:33:21;8.43;;;7.63;;
1410;SDS011;700;51.906;8.404;2023-04-15T16:38:24;8.97;;;8.07;;
1410;SDS011;700;51.906;8.404;2023-04-15T16:43:25;11.63;;;8.90;;
1410;SDS011;700;51.906;8.404;2023-04-15T16:48:26;10.60;;;7.93;;
1410;SDS011;700;51.906;8.404;2023-04-15T16:53:26;8.00;;;7.20;;
1410;SDS011;700;51.906;8.404;2023-04-15T16:58:27;9.70;;;7.77;;
1410;SDS011;700;51.906;8.404;2023-04-15T17:03:32;9.20;;;7.40;;
1410;SDS011;700;51.906;8.404;2023-04-15T17:08:35;9.83;;;8.40;;
1410;SDS011;700;51.906;8.404;2023-04-15T17:13:36;10.67;;;8.30;;
1410;SDS011;700;51.906;8.404;2023-04-15T17:18:37;9.50;;;7.40;;
1410;SDS011;700;51.906;8.404;2023-04-15T17:23:40;12.73;;;8.60;;
1410;SDS011;700;51.906;8.404;2023-04-15T17:28:41;10.67;;;8.33;;
1410;SDS011;700;51.906;8.404;2023-04-15T17:33:41;9.73;;;7.97;;
1410;SDS011;700;51.906;8.404;2023-04-15T17:38:48;10.20;;;9.10;;
1410;SDS011;700;51.906;8.404;2023-04-15T17:43:49;11.07;;;9.50;;
1410;SDS011;700;51.906;8.404;2023-04-15T17:48:49;11.50;;;10.30;;
1410;SDS011;700;51.906;8.404;2023-04-15T17:53:53;14.30;;;10.23;;
1410;SDS011;700;51.906;8.404;2023-04-15T17:58:53;12.17;;;10.93;;
1410;SDS011;700;51.906;8.404;2023-04-15T18:03:54;11.23;;;10.03;;
1410;SDS011;700;51.906;8.404;2023-04-15T18:08:57;14.93;;;10.87;;
1410;SDS011;700;51.906;8.404;2023-04-15T18:13:58;14.50;;;11.07;;
1410;SDS011;700;51.906;8.404;2023-04-15T18:18:58;15.10;;;11.97;;
1410;SDS011;700;51.906;8.404;2023-04-15T18:24:01;16.87;;;12.83;;
1410;SDS011;700;51.906;8.404;2023-04-15T18:29:04;18.33;;;13.27;;
1410;SDS011;700;51.906;8.404;2023-04-15T18:34:04;18.43;;;14.10;;
1410;SDS011;700;51.906;8.404;2023-04-15T18:39:06;28.07;;;20.57;;
1410;SDS011;700;51.906;8.404;2023-04-15T18:44:06;17.53;;;14.37;;
1410;SDS011;700;51.906;8.404;2023-04-15T18:49:07;19.50;;;15.47;;
1410;SDS011;700;51.906;8.404;2023-04-15T18:54:10;19.27;;;15.10;;
1410;SDS011;700;51.906;8.404;2023-04-15T18:59:11;19.93;;;15.63;;
1410;SDS011;700;51.906;8.404;2023-04-15T19:04:11;21.00;;;15.90;;
1410;SDS011;700;51.906;8.404;2023-04-15T19:09:12;20.60;;;15.30;;
1410;SDS011;700;51.906;8.404;2023-04-15T19:14:14;20.40;;;16.13;;
1410;SDS011;700;51.906;8.404;2023-04-15T19:19:14;20.70;;;15.83;;
1410;SDS011;700;51.906;8.404;2023-04-15T19:24:18;21.27;;;16.03;;
1410;SDS011;700;51.906;8.404;2023-04-15T19:29:19;20.07;;;16.23;;
1410;SDS011;700;51.906;8.404;2023-04-15T19:34:19;22.03;;;16.97;;
1410;SDS011;700;51.906;8.404;2023-04-15T19:39:20;25.00;;;18.23;;
1410;SDS011;700;51.906;8.404;2023-04-15T19:44:23;28.77;;;20.47;;
1410;SDS011;700;51.906;8.404;2023-04-15T19:49:24;28.30;;;22.00;;
1410;SDS011;700;51.906;8.404;2023-04-15T19:54:25;32.67;;;21.73;;
1410;SDS011;700;51.906;8.404;2023-04-15T19:59:26;30.63;;;22.43;;
1410;SDS011;700;51.906;8.404;2023-04-15T20:04:26;28.70;;;20.43;;
1410;SDS011;700;51.906;8.404;2023-04-15T20:09:27;29.33;;;23.40;;
1410;SDS011;700;51.906;8.404;2023-04-15T20:14:32;33.43;;;24.63;;
1410;SDS011;700;51.906;8.404;2023-04-15T20:19:35;32.70;;;23.50;;
1410;SDS011;700;51.906;8.404;2023-04-15T20:24:36;35.43;;;25.63;;
1410;SDS011;700;51.906;8.404;2023-04-15T20:29:37;30.93;;;23.30;;
1410;SDS011;700;51.906;8.404;2023-04-15T20:34:40;37.07;;;24.87;;
1410;SDS011;700;51.906;8.404;2023-04-15T20:39:43;33.70;;;24.00;;
1410;SDS011;700;51.906;8.404;2023-04-15T20:44:43;29.23;;;21.77;;
1410;SDS011;700;51.906;8.404;2023-04-15T20:49:44;28.50;;;21.50;;
1410;SDS011;700;51.906;8.404;2023-04-15T20:54:47;35.13;;;21.63;;
1410;SDS011;700;51.906;8.404;2023-04-15T20:59:48;29.80;;;23.00;;
1410;SDS011;700;51.906;8.404;2023-04-15T21:04:48;31.37;;;23.20;;
1410;SDS011;700;51.906;8.404;2023-04-15T21:09:53;33.33;;;23.60;;
1410;SDS011;700;51.906;8.404;2023-04-15T21:14:55;35.67;;;24.07;;
1410;SDS011;700;51.906;8.404;2023-04-15T21:19:55;34.27;;;24.70;;
1410;SDS011;700;51.906;8.404;2023-04-15T21:24:58;36.87;;;25.67;;
1410;SDS011;700;51.906;8.404;2023-04-15T21:29:59;40.33;;;27.67;;
1410;SDS011;700;51.906;8.404;2023-04-15T21:34:59;42.63;;;25.83;;
1410;SDS011;700;51.906;8.404;2023-04-15T21:40:01;39.10;;;26.20;;
1410;SDS011;700;51.906;8.404;2023-04-15T21:45:01;39.20;;;27.47;;
1410;SDS011;700;51.906;8.404;2023-04-15T21:50:07;38.47;;;26.47;;
1410;SDS011;700;51.906;8.404;2023-04-15T21:55:08;41.60;;;28.73;;
1410;SDS011;700;51.906;8.404;2023-04-15T22:00:09;40.47;;;28.53;;
1410;SDS011;700;51.906;8.404;2023-04-15T22:05:10;41.20;;;28.80;;
1410;SDS011;700;51.906;8.404;2023-04-15T22:10:13;35.30;;;25.93;;
1410;SDS011;700;51.906;8.404;2023-04-15T22:15:16;36.90;;;29.47;;
1410;SDS011;700;51.906;8.404;2023-04-15T22:20:17;34.77;;;26.70;;
1410;SDS011;700;51.906;8.404;2023-04-15T22:25:18;42.90;;;29.57;;
1410;SDS011;700;51.906;8.404;2023-04-15T22:30:18;36.07;;;28.63;;
1410;SDS011;700;51.906;8.404;2023-04-15T22:35:21;37.67;;;26.80;;
1410;SDS011;700;51.906;8.404;2023-04-15T22:40:22;33.30;;;25.90;;
1410;SDS011;700;51.906;8.404;2023-04-15T22:45:25;33.07;;;27.00;;
1410;SDS011;700;51.906;8.404;2023-04-15T22:50:25;39.20;;;28.30;;
1410;SDS011;700;51.906;8.404;2023-04-15T22:55:26;40.53;;;28.97;;
1410;SDS011;700;51.906;8.404;2023-04-15T23:00:27;40.67;;;29.03;;
1410;SDS011;700;51.906;8.404;2023-04-15T23:05:27;40.53;;;27.90;;
1410;SDS011;700;51.906;8.404;2023-04-15T23:10:32;38.17;;;27.83;;
1410;SDS011;700;51.906;8.404;2023-04-15T23:15:35;39.10;;;28.20;;
1410;SDS011;700;51.906;8.404;2023-04-15T23:20:36;35.73;;;28.03;;
1410;SDS011;700;51.906;8.404;2023-04-15T23:25:36;37.77;;;28.93;;
1410;SDS011;700;51.906;8.404;2023-04-15T23:30:39;36.93;;;28.20;;
1410;SDS011;700;51.906;8.404;2023-04-15T23:35:42;36.50;;;29.03;;
1410;SDS011;700;51.906;8.404;2023-04-15T23:40:43;39.23;;;29.70;;
1410;SDS011;700;51.906;8.404;2023-04-15T23:45:44;33.93;;;29.17;;
1410;SDS011;700;51.906;8.404;2023-04-15T23:50:47;35.13;;;27.83;;
1410;SDS011;700;51.906;8.404;2023-04-15T23:55:50;35.13;;;27.70;;
